Time;durP1;ratioP1;P1;durP2;ratioP2;P2;SDS_P1;SDS_P2;PMS_P1;PMS_P2;Temp;Humidity;BMP_temperature;BMP_pressure;BME280_temperature;BME280_humidity;BME280_pressure;Samples;Min_cycle;Max_cycle;Signal;HPM_P1;HPM_P2
2022/02/10 00:03:11;;;;;;;;;;;;;;;;;;5045939;28;20284;-77
2022/02/10 00:06:59;;;;;;;;;;;;;;;;;;5096123;28;19927;-74
2022/02/10 00:18:03;;;;;;;;;;;;;;;;;;5088192;28;19923;-77
2022/02/10 00:20:45;;;;;;;;;;;;;;;;;;5096091;28;20010;-75
2022/02/10 00:36:27;;;;;;;;;;;;;;;;;;5095001;28;20399;-75
2022/02/10 00:39:04;;;;;;;;;;;;;;;;;;5095389;28;20022;-79
2022/02/10 00:41:29;;;;;;;;;;;;;;;;;;5095559;28;19920;-75
2022/02/10 00:43:55;;;;;;;;;;;;;;;;;;5095386;28;19939;-74
2022/02/10 00:46:20;;;;;;;;;;;;;;;;;;5095387;28;19924;-76
2022/02/10 00:48:46;;;;;;;;;;;;;;;;;;5095212;28;20265;-78
2022/02/10 00:51:13;;;;;;;;;;;;;;;;;;5095274;28;19916;-80
2022/02/10 00:53:41;;;;;;;;;;;;;;;;;;5095347;28;19926;-75
2022/02/10 00:56:09;;;;;;;;;;;;;;;;;;5095180;28;19924;-80
2022/02/10 00:58:35;;;;;;;;;;;;;;;;;;5095443;28;20312;-79
2022/02/10 01:30:34;;;;;;;;;;;;;;;;;;5094842;28;19923;-80
2022/02/10 01:33:03;;;;;;;;;;;;;;;;;;5094795;28;19920;-79
2022/02/10 01:35:29;;;;;;;;;;;;;;;;;;5094907;28;19962;-76
2022/02/10 01:37:55;;;;;;;;;;;;;;;;;;5094654;28;19959;-74
2022/02/10 01:40:27;;;;;;;;;;;;;;;;;;5094498;28;19920;-75
2022/02/10 02:04:20;;;;;;;;;;;;;;;;;;5094366;28;20390;-75
2022/02/10 02:06:47;;;;;;;;;;;;;;;;;;5093940;28;19973;-74
2022/02/10 02:09:15;;;;;;;;;;;;;;;;;;5093924;28;20291;-75
2022/02/10 02:11:43;;;;;;;;;;;;;;;;;;5093778;28;19973;-74
2022/02/10 02:14:13;;;;;;;;;;;;;;;;;;5093891;28;19916;-79
2022/02/10 02:16:45;;;;;;;;;;;;;;;;;;5093798;28;19912;-76
2022/02/10 02:19:11;;;;;;;;;;;;;;;;;;5093823;28;19920;-74
2022/02/10 02:21:36;;;;;;;;;;;;;;;;;;5093808;28;19935;-80
2022/02/10 02:24:02;;;;;;;;;;;;;;;;;;5094015;28;19974;-80
2022/02/10 02:26:27;;;;;;;;;;;;;;;;;;5093578;28;19919;-75
2022/02/10 02:28:58;;;;;;;;;;;;;;;;;;5093745;28;19917;-75
2022/02/10 02:31:30;;;;;;;;;;;;;;;;;;5093703;28;20383;-77
2022/02/10 02:34:35;;;;;;;;;;;;;;;;;;5093821;28;19923;-74
2022/02/10 02:39:50;;;;;;;;;;;;;;;;;;5093663;28;19920;-80
2022/02/10 03:04:35;;;;;;;;;;;;;;;;;;5097781;28;19969;-78
2022/02/10 03:06:56;;;;;;;;;;;;;;;;;;5097138;28;19916;-75
2022/02/10 03:09:26;;;;;;;;;;;;;;;;;;5097154;28;20367;-77
2022/02/10 03:11:51;;;;;;;;;;;;;;;;;;5097119;28;19923;-74
2022/02/10 03:14:22;;;;;;;;;;;;;;;;;;5097101;28;19916;-74
2022/02/10 03:22:35;;;;;;;;;;;;;;;;;;5097454;28;19922;-75
2022/02/10 04:03:13;;;;;;;;;;;;;;;;;;5096279;28;20018;-76
2022/02/10 04:08:47;;;;;;;;;;;;;;;;;;5096522;28;19969;-76
2022/02/10 04:13:52;;;;;;;;;;;;;;;;;;5096551;28;19924;-80
2022/02/10 04:16:25;;;;;;;;;;;;;;;;;;5096990;28;19923;-79
2022/02/10 04:26:38;;;;;;;;;;;;;;;;;;5096139;28;20364;-80
2022/02/10 04:53:19;;;;;;;;;;;;;;;;;;5095476;28;19919;-79
2022/02/10 04:54:18;;;;;;;;;;;;;;;;;;5127599;27;20390;-78
2022/02/10 04:56:53;;;;;;;;;;;;;;;;;;5125654;27;19920;-78
2022/02/10 05:21:58;;;;;;;;;;;;;;;;;;5134347;27;20558;-77
2022/02/10 05:32:59;;;;;;;;;;;;;;;;;;5135439;27;19923;-77
2022/02/10 05:35:34;;;;;;;;;;;;;;;;;;5135385;27;19916;-82
2022/02/10 05:38:17;;;;;;;;;;;;;;;;;;5135549;27;19915;-76
2022/02/10 05:43:27;;;;;;;;;;;;;;;;;;5135358;27;19923;-76
2022/02/10 05:48:50;;;;;;;;;;;;;;;;;;5135237;27;19945;-76
2022/02/10 05:54:15;;;;;;;;;;;;;;;;;;5134954;27;20019;-82
2022/02/10 05:59:47;;;;;;;;;;;;;;;;;;5135360;27;19919;-82
2022/02/10 06:53:48;;;;;;;;;;;;;;;;;;5097689;28;20098;-77
2022/02/10 07:02:47;;;;;;;;;;;;;;;;;;5097506;28;19969;-78
2022/02/10 07:09:39;;;;;;;;;;;;;;;;;;5097364;28;19916;-77
2022/02/10 07:49:53;;;;;;;;;;;;;;;;;;5096705;28;19916;-80
2022/02/10 07:57:38;;;;;;;;;;;;;;;;;;5096441;28;19916;-77
2022/02/10 08:54:51;;;;;;;;;;;;;;;;;;5095141;28;19924;-78
2022/02/10 08:57:13;;;;;;;;;;;;;;;;;;5093780;28;19920;-77
2022/02/10 09:02:42;;;;;;;;;;;;;;;;;;5095225;28;19969;-75
2022/02/10 09:10:51;;;;;;;;;;;;;;;;;;5094990;28;19924;-77
2022/02/10 09:13:29;;;;;;;;;;;;;;;;;;5094608;28;19934;-81
2022/02/10 09:16:28;;;;;;;;;;;;;;;;;;5094955;28;19916;-78
2022/02/10 09:19:16;;;;;;;;;;;;;;;;;;5094446;28;19922;-81
2022/02/10 09:22:21;;;;;;;;;;;;;;;;;;5094734;28;19985;-81
2022/02/10 09:47:23;;;;;;;;;;;;;;;;;;5094843;28;19923;-79
2022/02/10 09:57:39;;;;;;;;;;;;;;;;;;5119846;27;19973;-81
2022/02/10 10:02:45;;;;;;;;;;;;;;;;;;5134921;27;19964;-78
2022/02/10 10:05:25;;;;;;;;;;;;;;;;;;5135238;27;19919;-76
2022/02/10 10:21:34;;;;;;;;;;;;;;;;;;5135136;27;20351;-80
2022/02/10 10:24:17;;;;;;;;;;;;;;;;;;5134961;27;19919;-75
2022/02/10 10:49:33;;;;;;;;;;;;;;;;;;5134468;28;19915;-78
2022/02/10 10:54:36;;;;;;;;;;;;;;;;;;5123199;28;19927;-76
2022/02/10 10:59:55;;;;;;;;;;;;;;;;;;5114236;28;19916;-83
2022/02/10 11:38:32;;;;;;;;;;;;;;;;;;5117380;28;19923;-81
2022/02/10 11:41:23;;;;;;;;;;;;;;;;;;5117238;28;19916;-78
2022/02/10 13:29:34;;;;;;;;;;;;;;;;;;5106476;28;19919;-85
2022/02/10 13:34:31;;;;;;;;;;;;;;;;;;5106079;28;19955;-80
2022/02/10 14:09:14;;;;;;;;;;;;;;;;;;5094585;28;20070;-79
2022/02/10 14:14:17;;;;;;;;;;;;;;;;;;5100814;27;20007;-82
2022/02/10 14:16:56;;;;;;;;;;;;;;;;;;5094143;28;19920;-77
2022/02/10 14:19:37;;;;;;;;;;;;;;;;;;5098253;28;20397;-75
2022/02/10 14:27:25;;;;;;;;;;;;;;;;;;5114500;28;20042;-84
2022/02/10 14:29:51;;;;;;;;;;;;;;;;;;5114630;28;19951;-83
2022/02/10 14:32:20;;;;;;;;;;;;;;;;;;5114036;28;19915;-79
2022/02/10 14:34:48;;;;;;;;;;;;;;;;;;5100903;28;20279;-81
2022/02/10 14:42:53;;;;;;;;;;;;;;;;;;5098021;28;19927;-77
2022/02/10 15:32:13;;;;;;;;;;;;;;;;;;5106707;27;19959;-78
2022/02/10 15:36:03;;;;;;;;;;;;;;;;;;5111979;27;19927;-81
2022/02/10 15:46:01;;;;;;;;;;;;;;;;;;5116203;28;19924;-76
2022/02/10 16:17:27;;;;;;;;;;;;;;;;;;5054767;28;19924;-78
2022/02/10 16:19:54;;;;;;;;;;;;;;;;;;5050343;28;19928;-84
2022/02/10 16:22:36;;;;;;;;;;;;;;;;;;5061819;28;19916;-85
2022/02/10 16:25:04;;;;;;;;;;;;;;;;;;5071592;28;20348;-76
2022/02/10 16:27:32;;;;;;;;;;;;;;;;;;5055318;28;19998;-80
2022/02/10 16:30:03;;;;;;;;;;;;;;;;;;5088059;28;19927;-80
2022/02/10 16:32:29;;;;;;;;;;;;;;;;;;5093765;28;20383;-78
2022/02/10 16:34:56;;;;;;;;;;;;;;;;;;5095769;28;19917;-81
2022/02/10 16:37:22;;;;;;;;;;;;;;;;;;5094839;28;19916;-77
2022/02/10 16:39:48;;;;;;;;;;;;;;;;;;5095848;28;20356;-81
2022/02/10 16:42:16;;;;;;;;;;;;;;;;;;5094406;28;19916;-78
2022/02/10 16:44:43;;;;;;;;;;;;;;;;;;5094270;28;20015;-74
2022/02/10 16:47:10;;;;;;;;;;;;;;;;;;5094394;28;19923;-80
2022/02/10 16:49:38;;;;;;;;;;;;;;;;;;5094379;28;19952;-79
2022/02/10 16:52:07;;;;;;;;;;;;;;;;;;5102417;28;20249;-82
2022/02/10 16:54:41;;;;;;;;;;;;;;;;;;5114494;27;19928;-85
2022/02/10 17:00:14;;;;;;;;;;;;;;;;;;5108723;28;19923;-80
2022/02/10 17:03:12;;;;;;;;;;;;;;;;;;5104814;27;20397;-82
2022/02/10 17:25:06;;;;;;;;;;;;;;;;;;5135569;27;19921;-82
2022/02/10 17:27:05;;;;;;;;;;;;;;;;;;5128521;27;19927;-81
2022/02/10 17:32:16;;;;;;;;;;;;;;;;;;5110046;27;20021;-85
2022/02/10 17:53:27;;;;;;;;;;;;;;;;;;5115553;27;20464;-81
2022/02/10 17:56:08;;;;;;;;;;;;;;;;;;5093947;28;19955;-81
2022/02/10 17:58:33;;;;;;;;;;;;;;;;;;5104451;28;19972;-82
2022/02/10 18:00:59;;;;;;;;;;;;;;;;;;5109106;28;19931;-84
2022/02/10 18:03:26;;;;;;;;;;;;;;;;;;5094099;28;19924;-78
2022/02/10 18:06:12;;;;;;;;;;;;;;;;;;5107373;28;20291;-80
2022/02/10 18:08:49;;;;;;;;;;;;;;;;;;5102532;27;20285;-81
2022/02/10 18:16:12;;;;;;;;;;;;;;;;;;5108226;28;20038;-81
2022/02/10 18:18:43;;;;;;;;;;;;;;;;;;5097943;28;19920;-80
2022/02/10 18:21:29;;;;;;;;;;;;;;;;;;5099706;27;19924;-83
2022/02/10 18:26:31;;;;;;;;;;;;;;;;;;5104893;28;19931;-81
2022/02/10 18:29:05;;;;;;;;;;;;;;;;;;5096570;28;19996;-82
2022/02/10 18:34:42;;;;;;;;;;;;;;;;;;5100560;28;19959;-80
2022/02/10 19:01:46;;;;;;;;;;;;;;;;;;5100563;28;19927;-82
2022/02/10 19:09:35;;;;;;;;;;;;;;;;;;5112374;28;19966;-80
2022/02/10 19:12:04;;;;;;;;;;;;;;;;;;5112500;28;20425;-81
2022/02/10 19:14:33;;;;;;;;;;;;;;;;;;5091682;28;19972;-83
2022/02/10 19:16:58;;;;;;;;;;;;;;;;;;5112309;28;19966;-84
2022/02/10 19:19:24;;;;;;;;;;;;;;;;;;5109217;28;19947;-76
2022/02/10 19:21:49;;;;;;;;;;;;;;;;;;5085379;28;20408;-83
2022/02/10 19:24:16;;;;;;;;;;;;;;;;;;5097169;28;19915;-76
2022/02/10 19:26:41;;;;;;;;;;;;;;;;;;5108851;28;19969;-78
2022/02/10 19:29:07;;;;;;;;;;;;;;;;;;5106671;28;19919;-81
2022/02/10 19:31:37;;;;;;;;;;;;;;;;;;5109549;28;19974;-77
2022/02/10 19:34:03;;;;;;;;;;;;;;;;;;5111630;28;19924;-79
2022/02/10 19:36:29;;;;;;;;;;;;;;;;;;5109121;28;19920;-79
2022/02/10 19:38:55;;;;;;;;;;;;;;;;;;5107801;28;19920;-78
2022/02/10 19:41:20;;;;;;;;;;;;;;;;;;5106557;28;19920;-79
2022/02/10 19:43:47;;;;;;;;;;;;;;;;;;5111784;28;19931;-77
2022/02/10 19:46:13;;;;;;;;;;;;;;;;;;5115359;28;19924;-79
2022/02/10 19:48:39;;;;;;;;;;;;;;;;;;5103417;28;20547;-77
2022/02/10 19:51:04;;;;;;;;;;;;;;;;;;5111420;28;19931;-77
2022/02/10 19:53:30;;;;;;;;;;;;;;;;;;5097011;28;19920;-79
2022/02/10 19:55:55;;;;;;;;;;;;;;;;;;5108408;28;20163;-79
2022/02/10 19:58:23;;;;;;;;;;;;;;;;;;5110927;28;20410;-79
2022/02/10 20:00:52;;;;;;;;;;;;;;;;;;5114218;27;19935;-79
2022/02/10 20:03:20;;;;;;;;;;;;;;;;;;5115386;28;19916;-80
2022/02/10 20:05:48;;;;;;;;;;;;;;;;;;5132334;27;19923;-77
2022/02/10 20:08:15;;;;;;;;;;;;;;;;;;5131001;27;19957;-78
2022/02/10 20:10:41;;;;;;;;;;;;;;;;;;5113968;28;19916;-79
2022/02/10 20:13:07;;;;;;;;;;;;;;;;;;5115192;28;19938;-78
2022/02/10 20:15:34;;;;;;;;;;;;;;;;;;5115150;28;19915;-75
2022/02/10 20:18:04;;;;;;;;;;;;;;;;;;5115036;28;20313;-77
2022/02/10 20:20:30;;;;;;;;;;;;;;;;;;5112708;28;20446;-76
2022/02/10 20:22:55;;;;;;;;;;;;;;;;;;5108867;28;20022;-79
2022/02/10 20:25:21;;;;;;;;;;;;;;;;;;5111592;27;20274;-77
2022/02/10 20:27:48;;;;;;;;;;;;;;;;;;5106572;28;20358;-75
2022/02/10 20:30:13;;;;;;;;;;;;;;;;;;5105069;28;19916;-80
2022/02/10 20:32:39;;;;;;;;;;;;;;;;;;5110503;28;19945;-82
2022/02/10 20:35:06;;;;;;;;;;;;;;;;;;5114866;28;20379;-81
2022/02/10 20:37:32;;;;;;;;;;;;;;;;;;5114730;28;19922;-83
2022/02/10 20:39:57;;;;;;;;;;;;;;;;;;5096167;28;20353;-77
2022/02/10 20:42:23;;;;;;;;;;;;;;;;;;5111857;28;19972;-82
2022/02/10 20:44:53;;;;;;;;;;;;;;;;;;5114596;28;19942;-82
2022/02/10 20:47:21;;;;;;;;;;;;;;;;;;5107394;28;19934;-83
2022/02/10 20:49:46;;;;;;;;;;;;;;;;;;5107611;28;19920;-80
2022/02/10 20:52:12;;;;;;;;;;;;;;;;;;5091985;28;19964;-80
2022/02/10 20:54:39;;;;;;;;;;;;;;;;;;5114098;28;20007;-82
2022/02/10 20:57:05;;;;;;;;;;;;;;;;;;5106723;28;20432;-82
2022/02/10 20:59:39;;;;;;;;;;;;;;;;;;5111848;28;19928;-82
2022/02/10 21:02:09;;;;;;;;;;;;;;;;;;5107802;28;19970;-78
2022/02/10 21:04:41;;;;;;;;;;;;;;;;;;5105955;28;20291;-81
2022/02/10 21:07:15;;;;;;;;;;;;;;;;;;5107762;28;20355;-81
2022/02/10 21:09:58;;;;;;;;;;;;;;;;;;5114072;28;19923;-82
2022/02/10 21:12:27;;;;;;;;;;;;;;;;;;5098521;28;20003;-82
2022/02/10 21:14:52;;;;;;;;;;;;;;;;;;5092045;28;19920;-76
2022/02/10 21:17:23;;;;;;;;;;;;;;;;;;5102114;28;19920;-77
2022/02/10 21:19:49;;;;;;;;;;;;;;;;;;5114792;28;20257;-83
2022/02/10 21:22:18;;;;;;;;;;;;;;;;;;5112967;28;19933;-76
2022/02/10 21:24:51;;;;;;;;;;;;;;;;;;5102688;28;19919;-82
2022/02/10 21:30:18;;;;;;;;;;;;;;;;;;5035064;28;19920;-75
2022/02/10 21:32:56;;;;;;;;;;;;;;;;;;5036143;28;20385;-77
2022/02/10 21:35:43;;;;;;;;;;;;;;;;;;5043697;28;19968;-78
2022/02/10 21:38:18;;;;;;;;;;;;;;;;;;5040710;28;19951;-76
2022/02/10 21:54:53;;;;;;;;;;;;;;;;;;5032174;28;19932;-83
2022/02/10 21:59:58;;;;;;;;;;;;;;;;;;5031130;28;19917;-82
2022/02/10 22:20:45;;;;;;;;;;;;;;;;;;5093952;28;19981;-82
2022/02/10 22:23:20;;;;;;;;;;;;;;;;;;5093839;28;19924;-83
2022/02/10 22:25:46;;;;;;;;;;;;;;;;;;5093901;28;19976;-82
2022/02/10 22:28:43;;;;;;;;;;;;;;;;;;5093865;28;19916;-82
2022/02/10 22:36:06;;;;;;;;;;;;;;;;;;5094118;28;19916;-83
2022/02/10 22:38:32;;;;;;;;;;;;;;;;;;5093710;28;19966;-80
2022/02/10 22:41:04;;;;;;;;;;;;;;;;;;5093775;28;19917;-79
2022/02/10 22:43:30;;;;;;;;;;;;;;;;;;5094098;28;19912;-82
2022/02/10 22:45:55;;;;;;;;;;;;;;;;;;5093944;28;19916;-76
2022/02/10 22:48:21;;;;;;;;;;;;;;;;;;5093696;28;20384;-81
2022/02/10 22:50:46;;;;;;;;;;;;;;;;;;5093351;28;19920;-77
2022/02/10 22:53:13;;;;;;;;;;;;;;;;;;5093267;28;19924;-80
2022/02/10 22:55:41;;;;;;;;;;;;;;;;;;5093630;28;20322;-81
2022/02/10 22:58:06;;;;;;;;;;;;;;;;;;5093614;28;19923;-80
2022/02/10 23:00:36;;;;;;;;;;;;;;;;;;5093567;28;19916;-80
2022/02/10 23:03:02;;;;;;;;;;;;;;;;;;5093479;28;20393;-80
2022/02/10 23:05:28;;;;;;;;;;;;;;;;;;5093508;28;19947;-80
2022/02/10 23:07:58;;;;;;;;;;;;;;;;;;5093302;28;19916;-81
2022/02/10 23:13:05;;;;;;;;;;;;;;;;;;5093395;28;19961;-82
2022/02/10 23:15:36;;;;;;;;;;;;;;;;;;5098620;28;19995;-81
2022/02/10 23:18:04;;;;;;;;;;;;;;;;;;5102372;28;19912;-81
2022/02/10 23:20:30;;;;;;;;;;;;;;;;;;5096297;28;19923;-82
2022/02/10 23:22:55;;;;;;;;;;;;;;;;;;5096331;28;19917;-81
2022/02/10 23:25:23;;;;;;;;;;;;;;;;;;5096138;28;19916;-80
2022/02/10 23:27:49;;;;;;;;;;;;;;;;;;5096208;28;19916;-80
2022/02/10 23:30:15;;;;;;;;;;;;;;;;;;5096181;28;20330;-81
2022/02/10 23:32:41;;;;;;;;;;;;;;;;;;5077700;28;19920;-81
2022/02/10 23:35:17;;;;;;;;;;;;;;;;;;5096079;28;19938;-78
2022/02/10 23:37:42;;;;;;;;;;;;;;;;;;5096007;28;19923;-82
2022/02/10 23:40:09;;;;;;;;;;;;;;;;;;5096092;28;20286;-79
2022/02/10 23:42:34;;;;;;;;;;;;;;;;;;5096088;28;19951;-82
2022/02/10 23:45:11;;;;;;;;;;;;;;;;;;5095962;28;20324;-79
2022/02/10 23:47:36;;;;;;;;;;;;;;;;;;5095870;28;19916;-79
2022/02/10 23:50:02;;;;;;;;;;;;;;;;;;5095681;28;20366;-81
2022/02/10 23:52:27;;;;;;;;;;;;;;;;;;5095638;28;20436;-79
2022/02/10 23:54:58;;;;;;;;;;;;;;;;;;5080016;28;19956;-78
